createdAt,value
2023-03-22T00:02:10.737Z,89.85
2023-03-22T00:04:37.530Z,89.83
2023-03-22T00:07:04.285Z,90.10
2023-03-22T00:09:31.799Z,89.97
2023-03-22T00:11:58.551Z,89.89
2023-03-22T00:14:25.147Z,89.98
2023-03-22T00:16:51.620Z,89.89
2023-03-22T00:19:18.437Z,90.02
2023-03-22T00:21:45.253Z,89.87
2023-03-22T00:24:12.769Z,90.10
2023-03-22T00:26:39.390Z,90.04
2023-03-22T00:29:06.204Z,90.11
2023-03-22T00:31:32.985Z,90.00
2023-03-22T00:33:59.779Z,89.94
2023-03-22T00:36:26.388Z,89.88
2023-03-22T00:38:52.858Z,89.96
2023-03-22T00:41:21.803Z,90.21
2023-03-22T00:43:49.721Z,89.97
2023-03-22T00:46:19.307Z,90.15
2023-03-22T00:48:46.634Z,90.21
2023-03-22T00:51:14.515Z,90.21
2023-03-22T00:53:43.485Z,90.49
2023-03-22T00:56:15.585Z,90.37
2023-03-22T00:58:43.339Z,90.50
2023-03-22T01:01:13.771Z,90.81
2023-03-22T01:03:41.689Z,91.11
2023-03-22T01:06:09.273Z,90.92
2023-03-22T01:08:39.052Z,91.07
2023-03-22T01:11:07.262Z,91.00
2023-03-22T01:13:34.373Z,91.32
2023-03-22T01:16:01.327Z,91.62
2023-03-22T01:18:27.957Z,91.48
2023-03-22T01:20:54.696Z,91.72
2023-03-22T01:23:21.542Z,91.68
2023-03-22T01:25:48.111Z,91.44
2023-03-22T01:28:14.815Z,91.71
2023-03-22T01:30:42.145Z,91.51
2023-03-22T01:33:09.424Z,91.43
2023-03-22T01:35:37.468Z,91.42
2023-03-22T01:38:04.170Z,91.44
2023-03-22T01:40:30.915Z,91.00
2023-03-22T01:42:57.442Z,91.19
2023-03-22T01:45:43.850Z,90.90
2023-03-22T01:48:37.185Z,90.84
2023-03-22T01:51:19.584Z,90.67
2023-03-22T01:53:50.606Z,90.58
2023-03-22T01:56:24.021Z,90.62
2023-03-22T01:58:52.569Z,90.39
2023-03-22T02:01:19.681Z,90.30
2023-03-22T02:03:55.840Z,90.17
2023-03-22T02:06:24.214Z,90.06
2023-03-22T02:08:52.996Z,90.06
2023-03-22T02:11:30.896Z,89.89
2023-03-22T02:14:15.656Z,89.81
2023-03-22T02:16:48.014Z,89.91
2023-03-22T02:19:31.702Z,89.83
2023-03-22T02:22:21.874Z,90.01
2023-03-22T02:24:48.508Z,89.90
2023-03-22T02:27:23.674Z,89.88
2023-03-22T02:29:53.237Z,89.87
2023-03-22T02:32:48.433Z,90.04
2023-03-22T02:35:44.417Z,90.14
2023-03-22T02:38:22.962Z,90.28
2023-03-22T02:41:18.080Z,90.24
2023-03-22T02:44:05.195Z,90.33
2023-03-22T02:46:48.663Z,90.32
2023-03-22T02:49:40.307Z,90.46
2023-03-22T02:52:17.254Z,90.58
2023-03-22T02:54:52.983Z,90.67
2023-03-22T02:57:34.231Z,90.64
2023-03-22T03:00:05.701Z,90.67
2023-03-22T03:02:32.577Z,90.89
2023-03-22T03:04:59.753Z,90.90
2023-03-22T03:07:27.977Z,90.98
2023-03-22T03:09:54.681Z,91.10
2023-03-22T03:12:24.838Z,90.99
2023-03-22T03:14:52.222Z,91.03
2023-03-22T03:17:43.782Z,91.11
2023-03-22T03:20:22.120Z,91.14
2023-03-22T03:23:33.175Z,91.08
2023-03-22T03:26:11.805Z,91.15
2023-03-22T03:29:02.281Z,91.12
2023-03-22T03:31:41.385Z,91.12
2023-03-22T03:34:18.630Z,91.05
2023-03-22T03:36:53.452Z,90.91
2023-03-22T03:39:24.219Z,91.09
2023-03-22T03:41:53.276Z,90.82
2023-03-22T03:44:20.395Z,90.89
2023-03-22T03:46:48.938Z,90.89
2023-03-22T03:49:17.089Z,90.83
2023-03-22T03:51:54.611Z,90.91
2023-03-22T03:54:22.867Z,90.74
2023-03-22T03:56:49.444Z,90.76
2023-03-22T03:59:16.846Z,90.71
2023-03-22T04:01:50.151Z,90.68
2023-03-22T04:04:18.309Z,90.69
2023-03-22T04:06:44.963Z,90.84
2023-03-22T04:09:11.968Z,90.62
2023-03-22T04:11:38.805Z,90.59
2023-03-22T04:14:05.342Z,90.59
2023-03-22T04:16:31.990Z,90.29
2023-03-22T04:18:58.594Z,90.49
2023-03-22T04:21:25.484Z,90.36
2023-03-22T04:23:52.210Z,90.34
2023-03-22T04:26:18.826Z,90.21
2023-03-22T04:28:45.440Z,90.25
2023-03-22T04:31:14.082Z,90.26
2023-03-22T04:33:40.743Z,90.28
2023-03-22T04:36:10.384Z,90.33
2023-03-22T04:38:39.499Z,90.15
2023-03-22T04:41:06.741Z,90.06
2023-03-22T04:43:34.805Z,90.26
2023-03-22T04:46:02.579Z,90.06
2023-03-22T04:48:29.639Z,90.24
2023-03-22T04:50:57.486Z,90.22
2023-03-22T04:53:27.277Z,90.07
2023-03-22T04:55:57.046Z,90.31
2023-03-22T04:58:25.577Z,90.27
2023-03-22T05:00:53.479Z,90.21
2023-03-22T05:03:20.775Z,90.25
2023-03-22T05:05:57.762Z,90.16
2023-03-22T05:08:26.270Z,90.29
2023-03-22T05:10:57.904Z,90.21
2023-03-22T05:13:27.792Z,90.08
2023-03-22T05:15:54.672Z,90.10
2023-03-22T05:18:26.331Z,90.00
2023-03-22T05:20:55.969Z,89.96
2023-03-22T05:23:23.382Z,89.86
2023-03-22T05:25:52.000Z,89.88
2023-03-22T05:28:21.501Z,89.63
2023-03-22T05:30:49.264Z,89.40
2023-03-22T05:33:21.582Z,89.46
2023-03-22T05:35:50.332Z,89.34
2023-03-22T05:38:17.501Z,89.13
2023-03-22T05:40:44.951Z,89.04
2023-03-22T05:43:11.790Z,88.86
2023-03-22T05:45:38.587Z,88.77
2023-03-22T05:48:05.460Z,88.62
2023-03-22T05:50:32.445Z,88.69
2023-03-22T05:52:59.215Z,88.52
2023-03-22T05:55:26.685Z,88.42
2023-03-22T05:57:54.721Z,88.27
2023-03-22T06:00:23.696Z,88.07
2023-03-22T06:02:56.425Z,88.18
2023-03-22T06:05:23.392Z,88.06
2023-03-22T06:07:50.240Z,88.04
2023-03-22T06:10:17.664Z,88.01
2023-03-22T06:12:44.366Z,87.91
2023-03-22T06:15:11.894Z,87.80
2023-03-22T06:17:38.657Z,87.81
2023-03-22T06:20:14.571Z,87.77
2023-03-22T06:22:41.840Z,87.59
2023-03-22T06:25:09.707Z,87.30
2023-03-22T06:27:36.335Z,87.19
2023-03-22T06:30:03.044Z,87.10
2023-03-22T06:32:29.691Z,86.78
2023-03-22T06:34:56.830Z,86.75
2023-03-22T06:37:25.590Z,86.60
2023-03-22T06:39:52.284Z,86.35
2023-03-22T06:42:19.514Z,86.20
2023-03-22T06:44:46.227Z,85.95
2023-03-22T06:47:13.117Z,85.75
2023-03-22T06:49:40.004Z,85.40
2023-03-22T06:52:06.992Z,85.03
2023-03-22T06:54:33.989Z,84.55
2023-03-22T06:57:00.895Z,83.98
2023-03-22T06:59:27.682Z,83.91
2023-03-22T07:01:54.465Z,83.70
2023-03-22T07:04:21.554Z,83.20
2023-03-22T07:06:48.354Z,83.25
2023-03-22T07:09:15.371Z,83.09
2023-03-22T07:11:42.139Z,82.65
2023-03-22T07:14:09.472Z,82.64
2023-03-22T07:16:36.193Z,82.67
2023-03-22T07:19:03.427Z,82.81
2023-03-22T07:21:30.042Z,82.76
2023-03-22T07:23:56.806Z,82.65
2023-03-22T07:26:23.912Z,82.44
2023-03-22T07:28:50.822Z,82.54
2023-03-22T07:31:17.867Z,82.55
2023-03-22T07:33:44.592Z,82.38
2023-03-22T07:36:11.590Z,82.25
2023-03-22T07:38:38.348Z,81.97
2023-03-22T07:41:05.349Z,81.64
2023-03-22T07:43:37.127Z,81.28
2023-03-22T07:46:10.926Z,80.67
2023-03-22T07:48:39.018Z,80.56
2023-03-22T07:51:06.097Z,80.35
2023-03-22T07:53:32.934Z,80.27
2023-03-22T07:55:59.770Z,79.98
2023-03-22T07:58:26.517Z,79.73
2023-03-22T08:00:53.373Z,79.30
2023-03-22T08:03:20.026Z,79.08
2023-03-22T08:05:47.680Z,78.84
2023-03-22T08:08:14.420Z,78.17
2023-03-22T08:10:41.481Z,77.46
2023-03-22T08:13:08.279Z,76.39
2023-03-22T08:15:37.399Z,75.90
2023-03-22T08:18:04.178Z,75.17
2023-03-22T08:20:30.784Z,75.09
2023-03-22T08:22:57.378Z,74.36
2023-03-22T08:25:24.423Z,74.92
2023-03-22T08:27:51.057Z,74.21
2023-03-22T08:30:18.399Z,73.48
2023-03-22T08:32:45.193Z,73.20
2023-03-22T08:35:15.620Z,73.18
2023-03-22T08:37:42.471Z,73.37
2023-03-22T08:40:10.420Z,73.12
2023-03-22T08:42:37.180Z,72.88
2023-03-22T08:45:04.463Z,72.88
2023-03-22T08:47:31.532Z,73.26
2023-03-22T08:49:58.775Z,72.78
2023-03-22T08:52:25.618Z,72.56
2023-03-22T08:54:53.538Z,72.10
2023-03-22T08:57:22.055Z,72.13
2023-03-22T08:59:48.915Z,72.07
2023-03-22T09:02:15.627Z,72.30
2023-03-22T09:04:42.746Z,72.08
2023-03-22T09:07:09.630Z,71.69
2023-03-22T09:09:36.801Z,71.20
2023-03-22T09:12:03.409Z,70.91
2023-03-22T09:14:30.265Z,70.56
2023-03-22T09:16:57.240Z,70.07
2023-03-22T09:19:23.951Z,69.76
2023-03-22T09:21:51.126Z,69.35
2023-03-22T09:24:17.705Z,68.90
2023-03-22T09:26:44.848Z,68.20
2023-03-22T09:29:11.616Z,68.57
2023-03-22T09:31:38.528Z,68.17
2023-03-22T09:34:05.707Z,67.00
2023-03-22T09:36:34.944Z,66.49
2023-03-22T09:39:06.728Z,66.69
2023-03-22T09:41:41.151Z,66.82
2023-03-22T09:44:14.813Z,66.57
2023-03-22T09:46:48.814Z,66.19
2023-03-22T09:49:22.943Z,66.57
2023-03-22T09:51:51.761Z,65.80
2023-03-22T09:54:28.721Z,64.78
2023-03-22T09:57:29.041Z,65.17
2023-03-22T10:00:12.505Z,64.59
2023-03-22T10:02:52.394Z,64.38
2023-03-22T10:05:44.479Z,63.45
2023-03-22T10:08:35.969Z,63.73
2023-03-22T10:11:07.408Z,63.73
2023-03-22T10:13:45.639Z,63.56
2023-03-22T10:16:16.654Z,64.07
2023-03-22T10:18:50.727Z,63.86
2023-03-22T10:21:19.487Z,64.08
2023-03-22T10:23:52.070Z,63.38
2023-03-22T10:26:24.652Z,62.64
2023-03-22T10:29:04.030Z,62.38
2023-03-22T10:31:32.394Z,62.70
2023-03-22T10:34:16.580Z,62.04
2023-03-22T10:36:44.622Z,61.60
2023-03-22T10:39:27.252Z,60.55
2023-03-22T10:41:58.067Z,60.67
2023-03-22T10:44:27.430Z,60.68
2023-03-22T10:46:56.864Z,60.51
2023-03-22T10:49:29.878Z,60.01
2023-03-22T10:52:02.528Z,60.01
2023-03-22T10:54:29.285Z,59.25
2023-03-22T10:56:56.442Z,58.22
2023-03-22T10:59:51.747Z,58.39
2023-03-22T11:02:32.769Z,58.35
2023-03-22T11:05:04.951Z,58.60
2023-03-22T11:07:36.147Z,58.04
2023-03-22T11:10:08.820Z,57.06
2023-03-22T11:12:42.364Z,58.12
2023-03-22T11:15:23.609Z,58.37
2023-03-22T11:17:51.733Z,57.24
2023-03-22T11:20:20.400Z,56.69
2023-03-22T11:22:49.378Z,57.10
2023-03-22T11:25:21.223Z,57.13
2023-03-22T11:27:55.052Z,57.20
2023-03-22T11:30:29.460Z,56.11
2023-03-22T11:33:16.818Z,55.97
2023-03-22T11:35:47.014Z,56.13
2023-03-22T11:38:44.934Z,56.06
2023-03-22T11:41:28.358Z,55.48
2023-03-22T11:43:58.393Z,54.47
2023-03-22T11:46:25.364Z,54.23
2023-03-22T11:48:58.336Z,54.53
2023-03-22T11:51:30.850Z,54.58
2023-03-22T11:54:11.000Z,54.81
2023-03-22T11:56:42.425Z,54.91
2023-03-22T11:59:37.163Z,54.34
2023-03-22T12:02:27.431Z,53.44
2023-03-22T12:05:05.505Z,53.43
2023-03-22T12:07:34.846Z,53.56
2023-03-22T12:10:13.441Z,52.92
2023-03-22T12:12:46.668Z,53.00
2023-03-22T12:15:48.540Z,52.87
2023-03-22T12:18:22.551Z,51.38
2023-03-22T12:20:57.906Z,50.14
2023-03-22T12:23:27.817Z,49.23
2023-03-22T12:26:00.954Z,48.16
2023-03-22T12:28:33.798Z,47.35
2023-03-22T12:31:03.685Z,47.04
2023-03-22T12:33:47.555Z,47.66
2023-03-22T12:36:19.683Z,46.23
2023-03-22T12:39:00.603Z,46.12
2023-03-22T12:41:40.190Z,46.44
2023-03-22T12:44:17.163Z,45.95
2023-03-22T12:46:46.734Z,46.71
2023-03-22T12:49:23.308Z,47.28
2023-03-22T12:51:54.103Z,48.08
2023-03-22T12:54:24.258Z,48.51
2023-03-22T12:56:51.577Z,49.07
2023-03-22T12:59:26.524Z,49.28
2023-03-22T13:01:59.096Z,49.57
2023-03-22T13:04:36.668Z,50.06
2023-03-22T13:07:16.243Z,50.97
2023-03-22T13:09:48.687Z,51.11
2023-03-22T13:12:18.645Z,50.66
2023-03-22T13:14:57.637Z,50.91
2023-03-22T13:17:24.312Z,50.43
2023-03-22T13:20:10.976Z,50.68
2023-03-22T13:22:43.375Z,50.80
2023-03-22T13:25:10.264Z,50.56
2023-03-22T13:27:53.827Z,50.49
2023-03-22T13:30:21.651Z,50.60
2023-03-22T13:33:03.463Z,49.74
2023-03-22T13:35:46.485Z,49.33
2023-03-22T13:38:41.734Z,49.04
2023-03-22T13:41:16.461Z,48.89
2023-03-22T13:43:42.859Z,48.88
2023-03-22T13:46:09.647Z,48.51
2023-03-22T13:48:49.085Z,49.01
2023-03-22T13:51:22.565Z,49.87
2023-03-22T13:53:55.319Z,50.17
2023-03-22T13:56:47.619Z,51.06
2023-03-22T13:59:27.562Z,52.33
2023-03-22T14:02:00.026Z,53.43
2023-03-22T14:04:44.206Z,54.42
2023-03-22T14:07:26.226Z,55.12
2023-03-22T14:10:00.518Z,56.20
2023-03-22T14:12:47.800Z,56.98
2023-03-22T14:15:19.021Z,57.16
2023-03-22T14:17:51.030Z,57.53
2023-03-22T14:20:21.762Z,57.81
